Fremont, OH (43420)

5:07 PM EDT on June 22, 2017 (GMT -0400)
North Of Fremont PD West State | | Change Station

Elev 627 ft 41.35 °N, 83.13 °W | Updated 1 second ago

Mostly Cloudy
Mostly Cloudy
88.9 °F
Feels Like 99 °F
N
5.0
Wind Variable Wind from South

Today
High -- | Low -- °F
--% Chance of Precip.
Yesterday
High -- | Low -- °F
Precip. -- in
Pressure 29.85 in
Visibility 10.0 miles
Clouds Scattered Clouds 5000 ft
Heat Index 99 °F
Dew Point 75 °F
Humidity 63%
Rainfall 0.00 in
Snow Depth Not available.
5:59 AM 9:09 PM
Waning Crescent, 2% visible
METAR KPCW 222059Z AUTO 21007KT 10SM SCT050 31/22 A2985 RMK AO2 $
Pressure 29.85 in
Visibility 10.0 miles
Clouds Scattered Clouds 5000 ft
Heat Index 99 °F
Dew Point 75 °F
Humidity 63%
Rainfall 0.00 in
Snow Depth Not available.
5:59 AM 9:09 PM
Waning Crescent, 2% visible
METAR KPCW 222059Z AUTO 21007KT 10SM SCT050 31/22 A2985 RMK AO2 $

Get Severe Weather Alerts

Thanks for signing up!

Be on the lookout for a verification email in your inbox.

You'll start receiving the daily forecast at 6 AM.

×

10-Day Weather Forecast

Almanac

Astronomy

Jun. 22, 2017 Rise Set
Actual Time
Civil Twilight
Nautical Twilight
Astronomical Twilight
Moon
Length of Visible Light
Length of Day
Tomorrow will be .
, % of the Moon is Illuminated

Today's Extremes

State Highs State Lows

Community

WunderPhotos

Category 6

Welcome to Category 6. This is the collective home for Weather Underground's featured writeups by Dr. Jeff Masters (right), Bob Henson (left), Chris Burt, and other regular contributors.

Nearby

Air Quality

  Air Quality AQ Index Pollutant
Not available.

Snow Depth

Station Depth Elevation

Earthquake Activity

City Distance Mag. Time & Date
Minimum magnitude displayed is 2.5.

Coastal Water Temperatures

Place Temperature

Stations

Nearby Weather Stations

Station Location Temp. Windchill Dew Point Humidity Wind Precip. Elev Updated Type
                   

Watches & Warnings

There are currently no watches in effect.